Time;durP1;ratioP1;P1;durP2;ratioP2;P2;SDS_P1;SDS_P2;PMS_P1;PMS_P2;Temp;Humidity;BMP_temperature;BMP_pressure;BME280_temperature;BME280_humidity;BME280_pressure;Samples;Min_cycle;Max_cycle;Signal;HPM_P1;HPM_P2
2021/09/03 00:00:34;;;;;;;6.10;3.60;;;9.60;91.60;;;;;;2098608;28;20171;-63
2021/09/03 00:01:35;;;;;;;3.90;2.83;;;9.60;91.70;;;;;;2098801;28;20292;-63
2021/09/03 00:02:38;;;;;;;3.60;2.67;;;9.60;91.80;;;;;;2098704;28;20679;-64
2021/09/03 00:03:39;;;;;;;4.13;2.95;;;9.50;91.90;;;;;;2098641;28;20174;-64
2021/09/03 00:04:41;;;;;;;4.07;3.17;;;9.50;92.00;;;;;;2098755;28;20584;-63
2021/09/03 00:05:41;;;;;;;5.53;2.78;;;9.50;92.20;;;;;;2098627;28;20179;-63
2021/09/03 00:06:42;;;;;;;5.93;3.20;;;9.50;92.20;;;;;;2098570;28;20183;-63
2021/09/03 00:07:44;;;;;;;4.67;2.30;;;9.50;92.10;;;;;;2098759;28;20658;-63
2021/09/03 00:08:44;;;;;;;4.15;3.13;;;9.50;92.20;;;;;;2098735;28;20191;-63
2021/09/03 00:09:45;;;;;;;5.43;2.73;;;9.40;92.10;;;;;;2098544;28;20182;-64
2021/09/03 00:10:46;;;;;;;4.00;3.07;;;9.50;92.00;;;;;;2098651;28;20229;-64
2021/09/03 00:11:46;;;;;;;9.80;3.57;;;9.50;92.00;;;;;;2098737;28;20229;-63
2021/09/03 00:12:47;;;;;;;4.43;2.70;;;9.50;92.00;;;;;;2098522;28;20646;-63
2021/09/03 00:13:48;;;;;;;3.67;2.53;;;9.40;92.20;;;;;;2098002;28;20674;-63
2021/09/03 00:14:49;;;;;;;3.67;2.80;;;9.40;92.30;;;;;;2098006;28;20651;-63
2021/09/03 00:15:50;;;;;;;3.70;2.83;;;9.50;92.30;;;;;;2098747;28;20188;-62
2021/09/03 00:16:50;;;;;;;4.77;2.80;;;9.50;92.30;;;;;;2098521;28;20631;-64
2021/09/03 00:17:51;;;;;;;3.60;2.27;;;9.40;92.30;;;;;;2098711;28;20185;-63
2021/09/03 00:18:52;;;;;;;3.47;2.40;;;9.40;92.30;;;;;;2098154;28;20254;-63
2021/09/03 00:19:53;;;;;;;3.40;2.60;;;9.40;92.20;;;;;;2098727;28;20286;-63
2021/09/03 00:20:53;;;;;;;5.13;2.63;;;9.50;91.90;;;;;;2098653;28;20667;-62
2021/09/03 00:21:54;;;;;;;2.60;2.27;;;9.50;91.80;;;;;;2098029;28;20179;-61
2021/09/03 00:22:55;;;;;;;3.20;2.33;;;9.40;91.80;;;;;;2097965;28;20181;-63
2021/09/03 00:23:55;;;;;;;5.07;3.10;;;9.30;91.80;;;;;;2098483;28;20179;-63
2021/09/03 00:24:56;;;;;;;3.33;2.53;;;9.30;92.00;;;;;;2098618;28;20173;-63
2021/09/03 00:25:57;;;;;;;4.33;2.53;;;9.30;92.30;;;;;;2098633;28;20270;-63
2021/09/03 00:26:58;;;;;;;4.47;2.50;;;9.30;92.40;;;;;;2098523;28;20211;-63
2021/09/03 00:27:58;;;;;;;2.53;2.33;;;9.20;92.40;;;;;;2098531;28;20183;-63
2021/09/03 00:28:59;;;;;;;5.40;3.27;;;9.20;92.40;;;;;;2098208;28;20233;-63
2021/09/03 00:30:00;;;;;;;3.73;2.73;;;9.20;92.40;;;;;;2098528;28;20200;-63
2021/09/03 00:31:00;;;;;;;2.67;2.10;;;9.20;92.30;;;;;;2098366;28;20227;-62
2021/09/03 00:32:01;;;;;;;3.23;2.63;;;9.20;92.10;;;;;;2097893;28;20186;-63
2021/09/03 00:33:02;;;;;;;3.50;2.67;;;9.20;91.90;;;;;;2097688;28;20179;-63
2021/09/03 00:34:03;;;;;;;4.07;2.57;;;9.20;91.90;;;;;;2098496;28;20184;-62
2021/09/03 00:35:06;;;;;;;5.10;2.70;;;9.10;91.90;;;;;;2098373;28;20186;-63
2021/09/03 00:36:07;;;;;;;3.40;2.47;;;9.10;92.00;;;;;;2098407;28;20185;-63
2021/09/03 00:37:08;;;;;;;4.13;2.87;;;9.10;92.10;;;;;;2098448;28;20690;-62
2021/09/03 00:38:08;;;;;;;3.23;2.53;;;9.10;92.10;;;;;;2098397;28;20176;-62
2021/09/03 00:39:09;;;;;;;3.60;2.40;;;9.10;92.10;;;;;;2098257;28;20219;-63
2021/09/03 00:40:10;;;;;;;3.23;2.10;;;9.10;92.20;;;;;;2098348;28;20269;-63
2021/09/03 00:41:11;;;;;;;5.33;2.47;;;9.00;92.20;;;;;;2098388;28;20194;-63
2021/09/03 00:42:14;;;;;;;2.53;2.03;;;9.00;92.10;;;;;;2098381;28;20781;-63
2021/09/03 00:43:14;;;;;;;3.58;2.38;;;9.00;92.20;;;;;;2098288;28;20168;-62
2021/09/03 00:44:15;;;;;;;9.63;3.10;;;9.00;92.20;;;;;;2098471;28;20184;-63
2021/09/03 00:45:16;;;;;;;3.87;2.60;;;9.00;92.30;;;;;;2098446;28;20183;-63
2021/09/03 00:46:17;;;;;;;4.63;2.83;;;9.00;92.40;;;;;;2098295;28;20183;-63
2021/09/03 00:47:18;;;;;;;3.43;2.57;;;9.00;92.60;;;;;;2098435;28;20233;-62
2021/09/03 00:48:18;;;;;;;4.75;2.88;;;9.00;92.70;;;;;;2098358;28;20179;-63
2021/09/03 00:49:19;;;;;;;2.90;2.50;;;8.90;92.80;;;;;;2098155;28;20551;-63
2021/09/03 00:50:20;;;;;;;5.77;3.13;;;8.90;92.80;;;;;;2098204;28;20185;-63
2021/09/03 00:51:20;;;;;;;5.77;2.77;;;9.00;92.90;;;;;;2098181;28;20217;-61
2021/09/03 00:52:22;;;;;;;4.20;2.70;;;8.90;92.90;;;;;;2098377;28;20182;-63
2021/09/03 00:53:24;;;;;;;4.30;2.72;;;8.90;92.80;;;;;;2098363;28;20222;-63
2021/09/03 00:54:25;;;;;;;4.30;3.22;;;8.90;92.70;;;;;;2098371;28;20598;-63
2021/09/03 00:55:25;;;;;;;5.63;2.93;;;8.90;92.60;;;;;;2097705;28;20233;-62
2021/09/03 00:56:27;;;;;;;6.30;3.30;;;9.00;92.50;;;;;;2089516;28;20189;-62
2021/09/03 00:57:28;;;;;;;8.55;3.15;;;9.00;92.50;;;;;;2097667;28;20258;-65
2021/09/03 00:58:28;;;;;;;3.90;2.60;;;9.00;92.80;;;;;;2098227;28;20172;-63
2021/09/03 00:59:29;;;;;;;3.40;2.67;;;8.90;92.90;;;;;;2098031;28;20211;-62
2021/09/03 01:00:30;;;;;;;5.47;3.03;;;8.90;93.00;;;;;;2098280;28;20203;-63
2021/09/03 01:01:30;;;;;;;6.67;3.50;;;8.90;92.90;;;;;;2098469;28;20219;-63
2021/09/03 01:02:31;;;;;;;4.10;2.23;;;8.80;93.00;;;;;;2098157;28;20196;-62
2021/09/03 01:03:32;;;;;;;5.33;3.10;;;8.80;92.90;;;;;;2098207;28;20216;-63
2021/09/03 01:04:33;;;;;;;5.40;3.63;;;8.80;92.90;;;;;;2097546;28;20173;-62
2021/09/03 01:05:34;;;;;;;4.80;3.10;;;8.90;92.90;;;;;;2097803;28;20654;-62
2021/09/03 01:06:34;;;;;;;5.17;2.93;;;8.80;92.90;;;;;;2098352;28;20176;-63
2021/09/03 01:07:35;;;;;;;7.07;2.80;;;8.80;92.90;;;;;;2097917;28;20219;-62
2021/09/03 01:08:36;;;;;;;5.43;2.80;;;8.80;92.90;;;;;;2098203;28;20171;-62
2021/09/03 01:09:37;;;;;;;4.20;3.03;;;8.80;92.90;;;;;;2098109;28;20220;-63
2021/09/03 01:10:38;;;;;;;7.27;3.00;;;8.80;92.80;;;;;;2098356;28;20184;-62
2021/09/03 01:11:39;;;;;;;4.25;2.72;;;8.80;92.80;;;;;;2098182;28;20200;-61
2021/09/03 01:12:40;;;;;;;4.77;2.60;;;8.80;92.90;;;;;;2098193;28;20620;-63
2021/09/03 01:13:40;;;;;;;4.57;3.13;;;8.80;92.80;;;;;;2098344;28;20211;-63
2021/09/03 01:14:41;;;;;;;3.27;2.50;;;8.80;92.70;;;;;;2098287;28;20265;-62
2021/09/03 01:15:42;;;;;;;5.53;3.17;;;8.80;92.60;;;;;;2098242;28;20210;-63
2021/09/03 01:16:43;;;;;;;3.60;2.70;;;8.80;93.10;;;;;;2098219;28;20562;-62
2021/09/03 01:17:44;;;;;;;3.83;2.92;;;8.80;92.60;;;;;;2098208;28;20176;-62
2021/09/03 01:18:44;;;;;;;4.33;2.87;;;8.80;92.60;;;;;;2098252;28;20636;-63
2021/09/03 01:19:50;;;;;;;5.47;2.50;;;8.80;92.60;;;;;;2097749;28;20333;-63
2021/09/03 01:20:51;;;;;;;3.17;2.47;;;8.80;92.50;;;;;;2098156;28;20164;-63
2021/09/03 01:21:52;;;;;;;5.80;2.93;;;8.80;92.50;;;;;;2098238;28;20541;-62
2021/09/03 01:22:53;;;;;;;6.10;3.00;;;8.70;92.50;;;;;;2098277;28;20747;-62
2021/09/03 01:23:54;;;;;;;3.93;2.80;;;8.80;92.60;;;;;;2098288;28;20182;-62
2021/09/03 01:24:54;;;;;;;6.23;3.30;;;8.70;92.60;;;;;;2098180;28;20180;-63
2021/09/03 01:25:55;;;;;;;3.73;2.90;;;8.70;92.70;;;;;;2098154;28;20214;-63
2021/09/03 01:26:57;;;;;;;4.70;3.37;;;8.70;92.70;;;;;;2098216;28;20592;-62
2021/09/03 01:27:57;;;;;;;6.25;3.60;;;8.70;92.70;;;;;;2098109;28;20184;-63
2021/09/03 01:28:58;;;;;;;3.33;2.53;;;8.60;92.90;;;;;;2097926;28;20639;-63
2021/09/03 01:29:59;;;;;;;4.30;2.70;;;8.60;93.00;;;;;;2098063;28;20237;-63
2021/09/03 01:30:59;;;;;;;4.33;3.17;;;8.60;92.90;;;;;;2098131;28;20175;-62
2021/09/03 01:32:00;;;;;;;5.27;3.23;;;8.60;93.00;;;;;;2098187;28;20643;-62
2021/09/03 01:33:01;;;;;;;4.83;2.77;;;8.60;93.00;;;;;;2100993;28;20223;-63
2021/09/03 01:34:02;;;;;;;4.05;3.15;;;8.60;92.90;;;;;;2098157;28;20171;-62
2021/09/03 01:35:03;;;;;;;3.10;2.27;;;8.60;92.90;;;;;;2098149;28;20290;-63
2021/09/03 01:36:04;;;;;;;6.50;3.05;;;8.60;92.80;;;;;;2097976;28;20247;-63
2021/09/03 01:37:05;;;;;;;4.15;2.95;;;8.60;92.90;;;;;;2098207;28;20172;-63
2021/09/03 01:38:06;;;;;;;6.03;3.40;;;8.60;92.90;;;;;;2098073;28;20780;-63
2021/09/03 01:39:07;;;;;;;3.85;3.00;;;8.60;92.80;;;;;;2097984;28;20186;-62
2021/09/03 01:40:09;;;;;;;4.10;3.03;;;8.50;93.20;;;;;;2098017;28;20175;-62
2021/09/03 01:41:10;;;;;;;5.80;2.65;;;8.50;92.50;;;;;;2097721;28;20779;-63
2021/09/03 01:42:11;;;;;;;4.22;2.65;;;8.50;92.40;;;;;;2097520;28;20247;-63
2021/09/03 01:43:12;;;;;;;3.87;2.97;;;8.50;92.40;;;;;;2098170;28;20171;-63
2021/09/03 01:44:13;;;;;;;4.03;2.80;;;8.50;92.50;;;;;;2098139;28;20203;-63
2021/09/03 01:45:13;;;;;;;5.27;2.83;;;8.50;92.50;;;;;;2098236;28;20184;-63
2021/09/03 01:46:14;;;;;;;3.83;2.57;;;8.50;92.60;;;;;;2098138;28;20816;-61
2021/09/03 01:47:15;;;;;;;4.40;2.83;;;8.50;92.90;;;;;;2098161;28;20172;-63
2021/09/03 01:48:16;;;;;;;5.00;3.37;;;8.40;93.10;;;;;;2098075;28;20629;-63
2021/09/03 01:49:16;;;;;;;5.30;3.10;;;8.50;93.20;;;;;;2097906;28;20176;-63
2021/09/03 01:50:17;;;;;;;3.33;2.80;;;8.40;93.20;;;;;;2097971;28;20186;-63
2021/09/03 01:51:18;;;;;;;5.40;3.13;;;8.40;93.10;;;;;;2098073;28;20635;-63
2021/09/03 01:52:18;;;;;;;4.73;3.10;;;8.50;93.10;;;;;;2098059;28;20180;-62
2021/09/03 01:53:19;;;;;;;5.30;2.80;;;8.40;93.10;;;;;;2098087;28;20180;-63
2021/09/03 01:54:20;;;;;;;5.03;3.50;;;8.50;93.10;;;;;;2097429;28;20176;-63
2021/09/03 01:55:20;;;;;;;3.87;3.07;;;8.50;93.00;;;;;;2097382;28;20188;-62
2021/09/03 01:56:21;;;;;;;5.70;3.70;;;8.50;93.10;;;;;;2098109;28;20283;-63
2021/09/03 01:57:22;;;;;;;5.83;3.17;;;8.50;93.10;;;;;;2098325;28;20736;-63
2021/09/03 01:58:22;;;;;;;8.77;3.37;;;8.50;93.30;;;;;;2098115;28;20180;-62
2021/09/03 01:59:23;;;;;;;6.27;3.27;;;8.60;93.30;;;;;;2097758;28;20619;-62
2021/09/03 02:00:25;;;;;;;3.73;2.67;;;8.60;93.30;;;;;;2098232;28;20171;-63
2021/09/03 02:01:25;;;;;;;3.95;2.67;;;8.50;93.30;;;;;;2097348;28;20542;-63
2021/09/03 02:02:26;;;;;;;5.73;2.77;;;8.50;93.30;;;;;;2097620;28;20186;-63
2021/09/03 02:03:27;;;;;;;7.50;3.38;;;8.50;93.20;;;;;;2097915;28;20205;-63
2021/09/03 02:04:28;;;;;;;5.03;3.20;;;8.60;93.10;;;;;;2098055;28;20176;-63
2021/09/03 02:05:28;;;;;;;4.57;2.57;;;8.50;93.00;;;;;;2097964;28;20167;-61
2021/09/03 02:06:29;;;;;;;3.73;2.73;;;8.50;92.90;;;;;;2091697;28;20180;-63
2021/09/03 02:07:30;;;;;;;4.77;3.03;;;8.50;92.90;;;;;;2097903;28;20187;-63
2021/09/03 02:08:31;;;;;;;4.82;3.05;;;8.50;93.00;;;;;;2097954;28;20310;-63
2021/09/03 02:09:32;;;;;;;5.43;3.00;;;8.50;93.30;;;;;;2097852;28;20177;-63
2021/09/03 02:10:33;;;;;;;6.77;3.33;;;8.60;93.40;;;;;;2098033;28;20186;-63
2021/09/03 02:11:34;;;;;;;3.30;3.00;;;8.60;93.80;;;;;;2098013;28;20196;-63
2021/09/03 02:12:35;;;;;;;6.32;3.53;;;8.70;94.00;;;;;;2097917;28;20418;-63
2021/09/03 02:13:36;;;;;;;4.47;3.00;;;8.70;94.10;;;;;;2098231;28;20259;-62
2021/09/03 02:14:37;;;;;;;4.10;2.97;;;8.80;94.20;;;;;;2097865;28;20179;-63
2021/09/03 02:15:37;;;;;;;6.30;3.43;;;8.80;94.00;;;;;;2098085;28;20181;-63
2021/09/03 02:16:38;;;;;;;4.57;3.43;;;8.90;93.80;;;;;;2097893;28;20177;-63
2021/09/03 02:17:39;;;;;;;7.23;3.53;;;8.90;93.70;;;;;;2097917;28;20180;-63
2021/09/03 02:18:39;;;;;;;4.13;2.90;;;8.80;93.60;;;;;;2106210;28;20232;-62
2021/09/03 02:19:40;;;;;;;3.60;2.87;;;8.90;93.90;;;;;;2107066;28;20286;-64
2021/09/03 02:20:41;;;;;;;4.97;3.37;;;8.80;94.20;;;;;;2099603;28;20179;-63
2021/09/03 02:21:42;;;;;;;7.50;3.53;;;8.80;94.10;;;;;;2099516;28;20204;-63
2021/09/03 02:22:42;;;;;;;6.07;3.07;;;8.90;94.20;;;;;;2099730;28;20183;-63
2021/09/03 02:23:43;;;;;;;6.47;3.63;;;8.90;94.10;;;;;;2099444;28;20186;-62
2021/09/03 02:24:44;;;;;;;4.57;2.67;;;8.90;93.90;;;;;;2099483;28;20172;-63
2021/09/03 02:25:44;;;;;;;4.87;3.27;;;8.90;93.90;;;;;;2099552;28;20603;-63
2021/09/03 02:26:45;;;;;;;3.37;2.37;;;8.90;93.80;;;;;;2099722;28;20192;-62
2021/09/03 02:27:46;;;;;;;5.57;2.73;;;8.90;93.70;;;;;;2099470;28;20635;-63
2021/09/03 02:28:46;;;;;;;5.10;3.63;;;8.90;93.40;;;;;;2099252;28;20171;-63
2021/09/03 02:29:47;;;;;;;5.50;3.70;;;8.90;93.30;;;;;;2098976;28;20271;-62
2021/09/03 02:30:48;;;;;;;9.27;3.00;;;8.80;93.10;;;;;;2099097;28;20184;-63
2021/09/03 02:31:49;;;;;;;4.80;2.77;;;8.80;93.10;;;;;;2099071;28;20176;-63
2021/09/03 02:32:49;;;;;;;2.87;2.20;;;8.70;92.90;;;;;;2099159;28;20183;-62
2021/09/03 02:33:50;;;;;;;3.47;2.73;;;8.60;92.90;;;;;;2099131;28;20208;-62
2021/09/03 02:34:51;;;;;;;3.90;2.47;;;8.60;92.90;;;;;;2099195;28;20231;-63
2021/09/03 02:35:52;;;;;;;6.60;3.23;;;8.50;92.80;;;;;;2099120;28;20327;-63
2021/09/03 02:36:53;;;;;;;3.85;2.35;;;8.50;92.70;;;;;;2098565;28;20586;-63
2021/09/03 02:37:55;;;;;;;4.03;2.73;;;8.50;92.80;;;;;;2098478;28;20184;-62
2021/09/03 02:38:56;;;;;;;4.25;2.58;;;8.50;92.90;;;;;;2098801;28;20663;-63
2021/09/03 02:39:56;;;;;;;4.47;2.47;;;8.50;92.90;;;;;;2099027;28;20183;-63
2021/09/03 02:40:57;;;;;;;3.53;2.37;;;8.40;93.00;;;;;;2098489;28;20234;-63
2021/09/03 02:41:58;;;;;;;7.03;2.90;;;8.40;93.20;;;;;;2098480;28;20172;-63
2021/09/03 02:42:59;;;;;;;5.63;2.97;;;8.40;93.10;;;;;;2099206;28;20191;-62
2021/09/03 02:43:59;;;;;;;7.07;2.80;;;8.40;93.00;;;;;;2099020;28;20180;-63
2021/09/03 02:45:00;;;;;;;4.57;2.80;;;8.40;93.50;;;;;;2098525;28;20579;-63
2021/09/03 02:46:01;;;;;;;3.67;2.23;;;8.40;92.80;;;;;;2098411;28;20543;-63
2021/09/03 02:47:02;;;;;;;3.20;2.42;;;8.30;92.70;;;;;;2099108;28;20215;-63
2021/09/03 02:48:04;;;;;;;2.88;2.47;;;8.30;92.60;;;;;;2098425;28;20248;-63
2021/09/03 02:49:05;;;;;;;3.30;2.30;;;8.30;92.70;;;;;;2098274;28;20177;-62
2021/09/03 02:50:06;;;;;;;4.00;2.43;;;8.30;92.60;;;;;;2099006;28;20720;-63
2021/09/03 02:51:06;;;;;;;3.63;2.50;;;8.30;92.60;;;;;;2098873;28;20651;-63
2021/09/03 02:52:07;;;;;;;3.60;2.77;;;8.30;92.40;;;;;;2099079;28;20187;-63
2021/09/03 02:53:08;;;;;;;3.10;2.20;;;8.30;92.50;;;;;;2099055;28;20177;-62
2021/09/03 02:54:08;;;;;;;4.17;2.40;;;8.20;92.50;;;;;;2098962;28;20249;-61
2021/09/03 02:55:09;;;;;;;2.37;1.83;;;8.20;92.60;;;;;;2098998;28;20225;-61
2021/09/03 02:56:10;;;;;;;3.50;2.47;;;8.20;92.70;;;;;;2098969;28;20203;-61
2021/09/03 02:57:11;;;;;;;5.40;2.30;;;8.10;92.70;;;;;;2099022;28;20172;-62
2021/09/03 02:58:11;;;;;;;4.67;2.70;;;8.10;92.80;;;;;;2098871;28;20639;-63
2021/09/03 02:59:12;;;;;;;3.50;2.30;;;8.10;92.80;;;;;;2098706;28;20268;-62
2021/09/03 03:00:14;;;;;;;6.00;2.37;;;8.10;92.90;;;;;;2098955;28;20183;-63
2021/09/03 03:01:14;;;;;;;3.75;2.58;;;8.10;93.10;;;;;;2098866;28;20211;-63
2021/09/03 03:02:15;;;;;;;4.00;2.53;;;8.10;93.10;;;;;;2098898;28;20195;-63
2021/09/03 03:03:16;;;;;;;3.23;2.43;;;8.10;93.20;;;;;;2098936;28;20184;-62
2021/09/03 03:04:17;;;;;;;6.03;2.50;;;8.10;93.30;;;;;;2098887;28;20415;-62
2021/09/03 03:05:17;;;;;;;4.43;2.80;;;8.10;93.30;;;;;;2098867;28;20183;-63
2021/09/03 03:06:18;;;;;;;4.57;2.53;;;8.10;93.30;;;;;;2098851;28;20176;-63
2021/09/03 03:07:19;;;;;;;3.53;2.80;;;8.10;93.10;;;;;;2098859;28;20176;-63
2021/09/03 03:08:19;;;;;;;4.07;2.60;;;8.10;93.00;;;;;;2099006;28;20696;-63
2021/09/03 03:09:20;;;;;;;3.90;2.80;;;8.10;92.90;;;;;;2098585;28;20336;-63
2021/09/03 03:10:21;;;;;;;2.30;2.10;;;8.10;93.00;;;;;;2098903;28;20525;-63
2021/09/03 03:11:21;;;;;;;3.73;2.73;;;8.10;93.00;;;;;;2098797;28;20204;-63
2021/09/03 03:12:22;;;;;;;2.60;2.20;;;8.10;92.90;;;;;;2098921;28;20175;-63
2021/09/03 03:13:25;;;;;;;3.20;2.70;;;8.10;92.90;;;;;;2098829;28;20225;-63
2021/09/03 03:14:27;;;;;;;4.95;3.10;;;8.10;92.90;;;;;;2098877;28;20195;-63
2021/09/03 03:15:28;;;;;;;3.20;2.45;;;8.10;92.80;;;;;;2098783;28;20270;-63
2021/09/03 03:16:28;;;;;;;6.37;3.37;;;8.00;93.00;;;;;;2099133;28;20229;-62
2021/09/03 03:17:29;;;;;;;4.37;3.00;;;8.00;93.20;;;;;;2098166;28;20187;-62
2021/09/03 03:18:30;;;;;;;4.13;2.77;;;8.00;93.50;;;;;;2098260;28;20601;-63
2021/09/03 03:19:31;;;;;;;4.70;2.80;;;8.00;93.60;;;;;;2098424;28;20230;-63
2021/09/03 03:20:32;;;;;;;3.90;2.10;;;8.00;93.50;;;;;;2098877;28;20579;-63
2021/09/03 03:21:32;;;;;;;6.33;3.00;;;8.00;93.60;;;;;;2098654;28;20189;-63
2021/09/03 03:22:33;;;;;;;5.03;2.67;;;8.00;93.60;;;;;;2098825;28;20588;-63
2021/09/03 03:23:34;;;;;;;6.63;2.60;;;8.00;93.50;;;;;;2098752;28;20179;-63
2021/09/03 03:24:35;;;;;;;4.87;2.57;;;8.00;93.30;;;;;;2098178;28;20218;-62
2021/09/03 03:25:36;;;;;;;4.90;2.63;;;8.10;93.00;;;;;;2098161;28;20183;-62
2021/09/03 03:26:36;;;;;;;3.77;2.23;;;8.10;92.70;;;;;;2098181;28;20583;-63
2021/09/03 03:27:37;;;;;;;6.17;3.07;;;8.10;92.50;;;;;;2098086;28;20434;-63
2021/09/03 03:28:38;;;;;;;3.30;2.50;;;8.00;92.60;;;;;;2098720;28;20650;-63
2021/09/03 03:29:38;;;;;;;5.17;2.70;;;8.00;92.80;;;;;;2098498;28;20227;-63
2021/09/03 03:30:39;;;;;;;8.70;3.17;;;8.00;93.00;;;;;;2098256;28;20180;-63
2021/09/03 03:31:41;;;;;;;3.43;2.50;;;8.00;93.10;;;;;;2098549;28;20306;-63
2021/09/03 03:32:41;;;;;;;3.03;2.70;;;8.00;93.20;;;;;;2098672;28;20450;-62
2021/09/03 03:33:42;;;;;;;4.60;3.43;;;8.00;93.30;;;;;;2097981;28;20595;-63
2021/09/03 03:34:43;;;;;;;7.77;3.37;;;8.00;93.20;;;;;;2098231;28;20209;-63
2021/09/03 03:35:43;;;;;;;2.67;2.17;;;8.00;93.40;;;;;;2098624;28;20270;-63
2021/09/03 03:36:44;;;;;;;4.23;2.70;;;8.00;93.40;;;;;;2098829;28;20203;-63
2021/09/03 03:37:45;;;;;;;2.83;2.47;;;7.90;93.30;;;;;;2098598;28;20616;-63
2021/09/03 03:38:45;;;;;;;4.43;2.70;;;7.90;93.40;;;;;;2103521;28;20194;-63
2021/09/03 03:39:46;;;;;;;3.90;2.67;;;7.90;93.40;;;;;;2106701;28;20228;-63
2021/09/03 03:40:47;;;;;;;3.50;2.60;;;7.90;93.20;;;;;;2106933;28;20813;-63
2021/09/03 03:41:47;;;;;;;8.63;3.03;;;7.90;93.30;;;;;;2107023;28;20336;-62
2021/09/03 03:42:48;;;;;;;3.77;2.50;;;7.90;93.30;;;;;;2107001;28;20220;-63
2021/09/03 03:43:49;;;;;;;3.07;2.73;;;7.90;93.30;;;;;;2107006;28;20584;-63
2021/09/03 03:44:50;;;;;;;4.00;3.07;;;7.90;93.20;;;;;;2106943;28;20179;-63
2021/09/03 03:45:50;;;;;;;3.00;2.00;;;7.90;93.10;;;;;;2107117;28;20190;-63
2021/09/03 03:46:51;;;;;;;4.63;2.43;;;7.90;93.10;;;;;;2106912;28;20228;-63
2021/09/03 03:47:52;;;;;;;4.47;3.13;;;7.90;93.10;;;;;;2106947;28;20525;-63
2021/09/03 03:48:52;;;;;;;4.37;3.00;;;7.80;93.20;;;;;;2106664;28;20171;-63
2021/09/03 03:49:53;;;;;;;4.63;2.87;;;7.80;93.40;;;;;;2106928;28;20816;-63
2021/09/03 03:50:54;;;;;;;3.23;2.63;;;7.80;93.50;;;;;;2106720;28;20186;-62
2021/09/03 03:51:55;;;;;;;3.85;2.72;;;7.70;93.60;;;;;;2106413;28;20190;-63
2021/09/03 03:52:56;;;;;;;6.03;2.83;;;7.70;93.70;;;;;;2106296;28;20187;-62
2021/09/03 03:53:56;;;;;;;2.90;2.37;;;7.70;93.70;;;;;;2106857;28;20187;-63
2021/09/03 03:54:57;;;;;;;4.67;2.73;;;7.70;93.80;;;;;;2106885;28;20175;-63
2021/09/03 03:55:58;;;;;;;5.80;2.83;;;7.70;93.90;;;;;;2106890;28;20630;-62
2021/09/03 03:56:59;;;;;;;4.77;3.10;;;7.80;93.90;;;;;;2106821;28;20207;-63
2021/09/03 03:57:59;;;;;;;7.87;3.40;;;7.70;93.90;;;;;;2106848;28;20425;-63
2021/09/03 03:59:00;;;;;;;4.23;2.90;;;7.80;93.90;;;;;;2106465;28;20629;-63
2021/09/03 04:00:01;;;;;;;3.40;3.00;;;7.80;94.10;;;;;;2106980;28;20175;-63
2021/09/03 04:01:02;;;;;;;3.92;2.75;;;7.80;94.20;;;;;;2106767;28;20865;-63
2021/09/03 04:02:03;;;;;;;10.53;2.23;;;7.80;94.20;;;;;;2106297;28;20197;-63
2021/09/03 04:03:03;;;;;;;3.55;2.60;;;7.80;94.10;;;;;;2106155;28;20560;-63
2021/09/03 04:04:04;;;;;;;4.50;2.63;;;7.80;94.00;;;;;;2106894;28;20187;-62
2021/09/03 04:05:06;;;;;;;3.83;2.30;;;7.80;94.10;;;;;;2106763;28;20182;-63
2021/09/03 04:06:06;;;;;;;3.50;2.65;;;7.90;94.20;;;;;;2106686;28;20613;-63
2021/09/03 04:07:07;;;;;;;5.27;3.70;;;7.80;94.50;;;;;;2106745;28;20186;-63
2021/09/03 04:08:08;;;;;;;4.03;2.93;;;7.80;94.30;;;;;;2106793;28;20520;-63
2021/09/03 04:09:09;;;;;;;3.07;2.53;;;7.90;94.20;;;;;;2106436;28;20201;-63
2021/09/03 04:10:10;;;;;;;5.67;2.53;;;7.90;94.30;;;;;;2106837;28;20572;-63
2021/09/03 04:11:10;;;;;;;4.33;3.03;;;7.90;94.30;;;;;;2106734;28;20257;-62
2021/09/03 04:12:11;;;;;;;4.30;2.90;;;7.90;94.30;;;;;;2106788;28;20421;-63
2021/09/03 04:13:12;;;;;;;4.07;2.93;;;7.90;94.10;;;;;;2106662;28;20224;-63
2021/09/03 04:14:13;;;;;;;4.67;2.87;;;7.90;94.00;;;;;;2106773;28;20292;-62
2021/09/03 04:15:13;;;;;;;4.45;2.65;;;7.90;93.90;;;;;;2106773;28;20211;-63
2021/09/03 04:16:14;;;;;;;4.77;3.03;;;7.90;93.80;;;;;;2106480;28;20194;-63
2021/09/03 04:17:15;;;;;;;4.43;2.87;;;7.90;93.80;;;;;;2106247;28;20171;-64
2021/09/03 04:18:17;;;;;;;4.70;3.70;;;7.90;93.70;;;;;;2106746;28;20638;-62
2021/09/03 04:19:17;;;;;;;3.70;2.78;;;7.90;93.70;;;;;;2106614;28;20214;-62
2021/09/03 04:20:19;;;;;;;4.53;3.00;;;7.90;93.70;;;;;;2106393;28;20177;-63
2021/09/03 04:21:19;;;;;;;7.20;3.03;;;7.80;93.60;;;;;;2106127;28;20590;-63
2021/09/03 04:22:20;;;;;;;3.47;2.70;;;7.80;93.70;;;;;;2106776;28;20183;-63
2021/09/03 04:23:21;;;;;;;4.20;2.20;;;7.80;93.80;;;;;;2106185;28;20209;-63
2021/09/03 04:24:21;;;;;;;3.10;2.30;;;7.80;93.70;;;;;;2106208;28;20645;-63
2021/09/03 04:25:22;;;;;;;3.17;2.20;;;7.80;93.80;;;;;;2106776;28;20167;-63
2021/09/03 04:26:23;;;;;;;3.70;2.50;;;7.70;93.80;;;;;;2106572;28;20186;-61
2021/09/03 04:27:23;;;;;;;6.33;3.60;;;7.70;93.80;;;;;;2106827;28;20175;-63
2021/09/03 04:28:24;;;;;;;4.47;3.40;;;7.70;93.90;;;;;;2106730;28;20236;-63
2021/09/03 04:29:26;;;;;;;5.77;3.40;;;7.70;93.80;;;;;;2106594;28;20396;-62
2021/09/03 04:30:26;;;;;;;6.35;3.00;;;7.70;93.80;;;;;;2106748;28;20183;-63
2021/09/03 04:31:27;;;;;;;3.87;2.77;;;7.70;93.70;;;;;;2105957;28;20199;-63
2021/09/03 04:32:28;;;;;;;3.90;2.77;;;7.70;93.70;;;;;;2106060;28;20288;-62
2021/09/03 04:33:28;;;;;;;4.23;2.33;;;7.70;93.60;;;;;;2106837;28;20662;-62
2021/09/03 04:34:29;;;;;;;4.60;2.83;;;7.60;93.60;;;;;;2106694;28;20175;-61
2021/09/03 04:35:30;;;;;;;3.37;2.70;;;7.60;93.60;;;;;;2106750;28;20183;-62
2021/09/03 04:36:30;;;;;;;4.43;2.67;;;7.60;93.50;;;;;;2106664;28;20757;-63
2021/09/03 04:37:31;;;;;;;3.40;2.57;;;7.60;93.50;;;;;;2106754;28;20359;-62
2021/09/03 04:38:32;;;;;;;7.40;2.90;;;7.60;93.50;;;;;;2106582;28;20270;-64
2021/09/03 04:39:33;;;;;;;3.87;3.13;;;7.60;93.50;;;;;;2106422;28;20213;-63
2021/09/03 04:40:34;;;;;;;3.58;2.53;;;7.70;93.60;;;;;;2106631;28;20178;-62
2021/09/03 04:41:35;;;;;;;4.63;2.97;;;7.60;93.50;;;;;;2106634;28;20654;-62
2021/09/03 04:42:35;;;;;;;5.63;2.40;;;7.60;93.70;;;;;;2105938;28;20178;-62
2021/09/03 04:43:36;;;;;;;4.33;3.00;;;7.60;93.70;;;;;;2106783;28;20174;-63
2021/09/03 04:44:37;;;;;;;3.97;2.67;;;7.60;93.70;;;;;;2106624;28;20163;-64
2021/09/03 04:45:37;;;;;;;4.33;2.87;;;7.60;93.60;;;;;;2106604;28;20638;-63
2021/09/03 04:46:38;;;;;;;6.27;3.33;;;7.60;93.60;;;;;;2106618;28;20182;-62
2021/09/03 04:47:39;;;;;;;3.50;2.87;;;7.60;93.70;;;;;;2106732;28;20179;-63
2021/09/03 04:48:39;;;;;;;4.63;2.93;;;7.60;93.80;;;;;;2106528;28;20189;-62
2021/09/03 04:49:40;;;;;;;4.67;3.27;;;7.60;93.90;;;;;;2106425;28;20181;-63
2021/09/03 04:50:42;;;;;;;4.33;2.63;;;7.50;94.00;;;;;;2106392;28;20175;-62
2021/09/03 04:51:42;;;;;;;3.28;2.47;;;7.50;94.20;;;;;;2106677;28;20256;-63
2021/09/03 04:52:43;;;;;;;6.20;3.17;;;7.50;94.30;;;;;;2106566;28;20187;-62
2021/09/03 04:53:44;;;;;;;4.00;2.80;;;7.50;94.20;;;;;;2106504;28;20266;-63
2021/09/03 04:54:45;;;;;;;4.10;2.53;;;7.50;94.10;;;;;;2106562;28;20995;-63
2021/09/03 04:55:45;;;;;;;3.27;2.50;;;7.50;94.10;;;;;;2106570;28;20289;-63
2021/09/03 04:56:46;;;;;;;4.40;2.97;;;7.50;93.90;;;;;;2106559;28;20274;-63
2021/09/03 04:57:47;;;;;;;5.33;2.40;;;7.50;93.80;;;;;;2106481;28;20179;-63
2021/09/03 04:58:47;;;;;;;8.20;3.13;;;7.50;93.80;;;;;;2106427;28;20205;-61
2021/09/03 04:59:48;;;;;;;2.90;2.50;;;7.50;93.80;;;;;;2106382;28;20202;-62
2021/09/03 05:00:49;;;;;;;3.50;2.67;;;7.50;93.80;;;;;;2106585;28;20178;-62
2021/09/03 05:01:50;;;;;;;2.57;2.30;;;7.50;93.80;;;;;;2106455;28;20210;-61
2021/09/03 05:02:50;;;;;;;3.70;2.73;;;7.50;93.80;;;;;;2106506;28;20190;-63
2021/09/03 05:03:51;;;;;;;3.87;2.43;;;7.50;93.70;;;;;;2106511;28;20642;-63
2021/09/03 05:04:52;;;;;;;4.67;2.30;;;7.50;93.80;;;;;;2106629;28;20175;-61
2021/09/03 05:05:53;;;;;;;3.63;2.43;;;7.60;93.80;;;;;;2106422;28;20198;-63
2021/09/03 05:06:53;;;;;;;3.17;2.53;;;7.60;93.70;;;;;;2106642;28;20673;-63
2021/09/03 05:07:54;;;;;;;3.87;2.67;;;7.60;93.80;;;;;;2106547;28;20182;-63
2021/09/03 05:08:55;;;;;;;4.83;3.13;;;7.60;93.70;;;;;;2106307;28;20183;-63
2021/09/03 05:09:55;;;;;;;4.77;3.10;;;7.70;93.60;;;;;;2106524;28;20203;-63
2021/09/03 05:10:56;;;;;;;5.47;2.43;;;7.70;93.60;;;;;;2106416;28;20269;-61
2021/09/03 05:11:56;;;;;;;3.13;2.63;;;7.70;93.60;;;;;;2106470;28;20182;-63
2021/09/03 05:12:57;;;;;;;4.90;2.73;;;7.70;93.70;;;;;;2106399;28;20185;-63
2021/09/03 05:13:58;;;;;;;6.10;3.57;;;7.70;93.70;;;;;;2106313;28;20190;-63
2021/09/03 05:15:00;;;;;;;4.70;3.10;;;7.70;93.70;;;;;;2106477;28;20183;-63
2021/09/03 05:16:01;;;;;;;4.03;2.40;;;7.70;93.80;;;;;;2105843;28;20183;-63
2021/09/03 05:17:02;;;;;;;4.47;3.33;;;7.80;93.80;;;;;;2105932;28;20665;-63
2021/09/03 05:18:03;;;;;;;4.40;2.80;;;7.80;93.80;;;;;;2106471;28;20182;-63
2021/09/03 05:19:04;;;;;;;4.90;3.15;;;7.80;93.80;;;;;;2106125;28;20210;-63
2021/09/03 05:20:05;;;;;;;2.87;2.37;;;7.80;93.80;;;;;;2106430;28;20194;-62
2021/09/03 05:21:07;;;;;;;4.82;2.83;;;7.80;93.90;;;;;;2106321;28;20183;-63